• Join FlightAware (Why Join?)
  • Login
  • US Flag 
02:22AM EDT


 

Airport Tracker/Info


-or-


 

Live Flight TrackerFlight Track Log ✈ EJA922 ✈ 17-Jan-2014 ✈ KSFO - KBFI

Flight Track Log - Related Links

Times and Time Zones

All times are in EST time to prevent confusion due to time zone crossing. See the EJA922 flight status page for this flight to view local times or setup timezone preferences in your user account.

Time Position Orientation Groundspeed Altitude Reporting Facility
EST Latitude Longitude Course Direction KTS MPH feet Rate Location/Type
05:53PM 37.6333 -122.3667 28° Northeast 168 193 1,300  Level Northern Cal TRACON
05:54PM 37.6833 -122.3333 28° Northeast 227 261 5,100 3,120 Climbing Northern Cal TRACON
05:57PM 37.8361 -122.2722 18° North 303 349 11,200 2,580 Climbing Oakland Center
05:58PM 37.9294 -122.2550 North 339 390 13,400 2,460 Climbing Oakland Center
05:59PM 38.0533 -122.2342 North 376 433 16,300 2,340 Climbing Oakland Center
06:00PM 38.1586 -122.2142 North 383 441 18,200 1,920 Climbing Oakland Center
06:01PM 38.2675 -122.1947 North 393 452 20,300 1,920 Climbing Oakland Center
06:02PM 38.3789 -122.1764 North 402 463 22,200 1,800 Climbing Oakland Center
06:03PM 38.4950 -122.1572 North 415 478 24,000 1,740 Climbing Oakland Center
06:04PM 38.6150 -122.1653 357° North 429 494 25,800 1,860 Climbing Oakland Center
06:05PM 38.7422 -122.1714 358° North 443 510 27,900 1,800 Climbing Oakland Center
06:06PM 38.8711 -122.1783 358° North 457 526 29,600 2,040 Climbing Oakland Center
06:07PM 39.0292 -122.1881 357° North 470 541 32,200 2,400 Climbing Oakland Center
06:08PM 39.1606 -122.1942 358° North 470 541 34,600 2,100 Climbing Oakland Center
06:09PM 39.2914 -122.2028 357° North 469 540 36,600 1,860 Climbing Oakland Center
06:10PM 39.4225 -122.2089 358° North 470 541 38,500 1,380 Climbing Oakland Center
06:11PM 39.5472 -122.2164 357° North 467 537 39,500 720 Climbing Oakland Center
06:12PM 39.6794 -122.2236 358° North 473 544 40,000 240 Climbing Oakland Center
06:13PM 39.8158 -122.2311 358° North 487 560 40,000  Level Oakland Center
06:14PM 39.9800 -122.2389 358° North 494 568 40,000  Level Oakland Center
06:15PM 40.1161 -122.2433 359° North 499 574 40,000  Level Oakland Center
06:16PM 40.2486 -122.2539 357° North 502 578 40,000  Level Oakland Center
06:17PM 40.3878 -122.2625 357° North 502 578 40,000  Level Oakland Center
06:18PM 40.5542 -122.2719 358° North 500 575 40,000  Level Oakland Center
06:19PM 40.6953 -122.2778 358° North 506 582 40,000  Level Oakland Center
06:20PM 40.8353 -122.2836 358° North 504 580 40,000  Level Oakland Center
06:21PM 40.9758 -122.2919 357° North 505 581 40,000  Level Oakland Center
06:22PM 41.1161 -122.3050 356° North 507 583 40,000  Level Oakland Center
06:23PM 41.2561 -122.3142 357° North 505 581 40,000  Level Oakland Center
06:24PM 41.4081 -122.3167 359° North 500 575 40,000  Level Oakland Center
06:25PM 41.4953 -122.3278 355° North 504 580 40,000  Level Seattle Center
06:26PM 41.6358 -122.3358 358° North 504 580 40,000  Level Seattle Center
06:27PM 41.7753 -122.3431 358° North 500 575 40,000  Level Seattle Center
06:28PM 41.9172 -122.3511 358° North 504 580 40,000  Level Seattle Center
06:29PM 42.0600 -122.3586 358° North 506 582 40,000  Level Seattle Center
06:30PM 42.2008 -122.3686 357° North 501 577 40,000  Level Seattle Center
06:31PM 42.3431 -122.3756 358° North 505 581 40,000  Level Seattle Center
06:32PM 42.4844 -122.3825 358° North 504 580 40,000  Level Seattle Center
06:33PM 42.6250 -122.3919 357° North 502 578 40,000  Level Seattle Center
06:34PM 42.7567 -122.3997 358° North 503 579 40,000  Level Seattle Center
06:35PM 42.8975 -122.4089 357° North 504 580 40,000  Level Seattle Center
06:36PM 43.0367 -122.4178 357° North 501 577 40,000  Level Seattle Center
06:37PM 43.1753 -122.4267 357° North 499 574 40,000  Level Seattle Center
06:38PM 43.3425 -122.4369 357° North 501 577 40,000  Level Seattle Center
06:39PM 43.4814 -122.4453 358° North 499 574 40,000  Level Seattle Center
06:40PM 43.6197 -122.4542 357° North 499 574 40,000  Level Seattle Center
06:41PM 43.7592 -122.4639 357° North 502 578 40,000  Level Seattle Center
06:42PM 43.9008 -122.4706 358° North 508 585 40,000  Level Seattle Center
06:43PM 44.0400 -122.4781 358° North 506 582 40,000  Level Seattle Center
06:44PM 44.1775 -122.4872 357° North 501 577 40,000  Level Seattle Center
06:45PM 44.3147 -122.4975 357° North 498 573 40,000  Level Seattle Center
06:46PM 44.4525 -122.5053 358° North 496 571 40,000  Level Seattle Center
06:47PM 44.5906 -122.5156 357° North 499 574 40,000  Level Seattle Center
06:48PM 44.7542 -122.5264 357° North 494 568 40,000  Level Seattle Center
06:49PM 44.8750 -122.5339 357° North 493 567 40,000  Level Seattle Center
06:50PM 45.0092 -122.5433 357° North 489 563 40,000  Level Seattle Center
06:51PM 45.1453 -122.5497 358° North 492 566 40,000 -60 Level Seattle Center
06:52PM 45.2825 -122.5592 357° North 496 571 39,900  Descending Seattle Center
06:53PM 45.4469 -122.5692 358° North 496 571 40,000  Climbing Seattle Center
06:54PM 45.5856 -122.5806 357° North 499 574 40,000  Level Seattle Center
06:55PM 45.7239 -122.5900 357° North 501 577 40,000 -180 Level Seattle Center
06:56PM 45.8581 -122.6181 352° North 491 565 39,700 -1,440 Descending Seattle Center
06:57PM 45.9881 -122.6492 351° North 481 554 37,100 -2,520 Descending Seattle Center
06:58PM 46.1222 -122.6808 351° North 485 558 34,600 -2,460 Descending Seattle Center
06:59PM 46.2483 -122.7144 350° North 486 559 32,200 -2,760 Descending Seattle Center
07:00PM 46.4086 -122.7553 350° North 487 560 29,100 -2,820 Descending Seattle Center
07:01PM 46.5411 -122.7906 350° North 485 558 26,500 -2,520 Descending Seattle Center
07:02PM 46.6719 -122.8250 350° North 481 554 24,000 -2,340 Descending Seattle Center
07:03PM 46.7858 -122.8578 349° North 423 487 21,800 -2,040 Descending Seattle Center
07:04PM 46.8867 -122.8803 351° North 373 429 19,900 -2,160 Descending Seattle Center
07:05PM 46.9289 -122.8911 350° North 338 389 18,700 -2,220 Descending Seattle Center
07:05PM 46.9853 -122.8742 12° North 351 404 17,700 -1,440 Descending Seattle Center
07:06PM 47.0125 -122.8528 28° Northeast 348 400 17,400 -1,620 Descending Seattle Center
07:06PM 47.0639 -122.7853 42° Northeast 353 406 16,100 -1,920 Descending Seattle Center
07:07PM 47.0883 -122.7569 38° Northeast 359 413 15,500 -1,800 Descending Seattle Center
07:08PM 47.1358 -122.6928 43° Northeast 342 394 14,300 -1,800 Descending Seattle Center
07:08PM 47.1683 -122.6519 40° Northeast 337 388 13,500 -1,680 Descending Seattle Center
07:09PM 47.2036 -122.6056 42° Northeast 321 369 12,600 -1,500 Descending Seattle Center
07:09PM 47.2336 -122.5678 41° Northeast 308 354 12,000 -600 Descending Seattle Center
07:10PM 47.2717 -122.5183 41° Northeast 300 345 12,000 -240 Level Seattle Center
07:10PM 47.2906 -122.4942 41° Northeast 289 333 11,800 -1,620 Descending Seattle Center
07:11PM 47.3383 -122.4600 26° Northeast 287 330 10,400 -1,980 Descending Seattle Center
07:11PM 47.3631 -122.4644 353° North 281 323 9,800 -1,980 Descending Seattle Center
07:12PM 47.4161 -122.4647 360° North 281 323 8,400 -1,980 Descending Seattle Center
07:12PM 47.4408 -122.4644 360° North 278 320 7,800 -1,980 Descending Seattle Center
07:13PM 47.4953 -122.4653 359° North 281 323 6,400 -1,800 Descending Seattle Center
07:13PM 47.5194 -122.4672 357° North 280 322 6,000 -1,140 Descending Seattle Center
07:14PM 47.5664 -122.4692 358° North 255 293 5,300 -1,320 Descending Seattle Center
07:14PM 47.5836 -122.4844 329° Northwest 223 257 4,700 -1,800 Descending Seattle Center
07:15PM 47.6186 -122.5103 334° Northwest 219 252 3,500 -1,200 Descending Seattle Center
07:15PM 47.6411 -122.5186 346° North 204 235 3,500 -720 Level Seattle Center
07:16PM 47.6647 -122.4833 45° Northeast 190 219 2,800 -1,140 Descending Seattle Center
07:16PM 47.6742 -122.4644 53° Northeast 178 205 2,400 -600 Descending Seattle Center
07:17PM 47.6725 -122.4228 93° East 178 205 2,200 -240 Descending Seattle Center
07:17PM 47.6592 -122.4133 154° Southeast 173 199 2,200  Level Seattle Center
07:18PM 47.6289 -122.3872 150° Southeast 182 209 2,200 -300 Level Seattle Center
07:18PM 47.6167 -122.3778 152° Southeast 180 207 1,900 -900 Descending Seattle Center
07:19PM 47.5897 -122.3539 149° Southeast 165 190 1,300 -900 Descending Seattle Center
07:19PM 47.5797 -122.3456 151° Southeast 154 177 1,000 -840 Descending Seattle Center
07:20PM 47.5556 -122.3253 150° Southeast 145 167 500 -840 Descending Seattle Center
07:20PM 47.5461 -122.3181 153° Southeast 145 167 200 -420 Descending Seattle Center
07:21PM 47.5236 -122.2983 149° Southeast 136 157 100 -180 Descending Seattle Center